Eatonton, Georgia
Current Conditions -  °F | °C
As of 8:55 PM on Sunday 21 Dec 2014 (Local Time) from KMLJ Reporting Station
Overcast Overcast  
Wind Chill: 50°   Ceiling: 2100
Heat Index: 50°   Visibility: 10mi
Dew Point: 50°   Wind: 5mph
Humidity: 100%   Direction: 110°ESE
Pressure: 30.12"   Gusts: NA
Location:  33.32°N, 83.39°W
Report Text: KMLJ 220155Z AUTO 11004KT 10SM SCT009 BKN021 OVC031 10/10 A3012 RMK AO2
Loading
Personal Weather Stations






























Interactive Weather Map New forecast layout! Learn more

10-Day Weather Forecast

Advertisements
Track Severe Weather on mobile